Memphis, Mississippi
Current Conditions -  °F | °C
As of 6:54 PM on Saturday 25 Oct 2014 (Local Time) from KMEM Reporting Station
Clear Clear  
Wind Chill: 73°   Ceiling: Unl
Heat Index: 73°   Visibility: 10mi
Dew Point: 63°   Wind: 3mph
Humidity: 71%   Direction: 200°SSW
Pressure: 30.03"   Gusts: NA
Location:  34.9578°N, 90.1057°W
Report Text: KMEM 252354Z 20003KT 10SM CLR 23/17 A3003 RMK AO2 SLP166 T02280172 10278 20222 55000 $
Loading
Personal Weather Stations






























Interactive Weather Map
Tropical Storm Tracking
New forecast layout! Learn more

10-Day Weather Forecast

Advertisements
Track Severe Weather on mobile